Terminal Aerodrome Forecast
Issued by NWS North Platte, NE

Home | Current Version | Previous Version | Text Only | Print | Product List | Glossary Off
Versions: 1 2 3 4 5 6 7 8 9 10 11 12 13 14 15 16 17

525
FTUS43 KLBF 152349
TAFVTN
TAF
KVTN 152349Z 1600/1624 35016G24KT P6SM OVC020
      TEMPO 1600/1601 1SM -SN BR OVC008
     FM160200 34015KT P6SM BKN035
     FM160800 29007KT P6SM FEW150
     FM161200 23006KT P6SM SKC
     FM161700 22011G17KT P6SM FEW250=

USA.gov is the U.S. government's official web portal to all federal, state and local government web resources and services.